Terminal Aerodrome Forecast
Issued by NWS

Home | Current Version | Previous Version | Text Only | Print | Product List | Glossary On
Versions: 1 2 3 4 5 6 7 8 9 10 11 12 13 14 15 16 17 18 19 20 21 22 23 24 25 26 27 28 29 30 31 32 33
000
FTUS45 KPSR 112300 RRA
TAFIWA
TAF
KIWA 112340Z 1200/1224 28009KT P6SM FEW100 SCT250
     FM120700 13006KT P6SM FEW120 BKN250
     FM121800 26006KT P6SM FEW120 BKN250
     FM122300 30008KT P6SM FEW120 BKN200
      AMD LTD TO CLD VIS AND WIND 1203/1213=

USA.gov is the U.S. government's official web portal to all federal, state and local government web resources and services.